WetterOnline ( https://www.wetteronline.ch )

Wetter aktuell Bremerhaven

Aktuelles Wetter: Bremerhaven (11m)

6-stündlich | Neueste Meldungen
Ortszeit Temperatur Wetter
Sa, 24.02. 13:00 7.7° C bewölkt
Sa, 24.02. 7:00 4.0° C bedeckt
Sa, 24.02. 1:00 5.4° C wolkig
Fr, 23.02. 19:00 7.0° C leicht bewölkt
Fr, 23.02. 13:00 7.7° C bedeckt
Fr, 23.02. 7:00 5.2° C leichter Regen
Fr, 23.02. 1:00 7.5° C bewölkt
Do, 22.02. 19:00 10.6° C bedeckt
Ortszeit Temperatur Wetter
Sa, 24.02. 18:00 5.7° C wolkenlos
Sa, 24.02. 17:50 5.7° C wolkenlos
Sa, 24.02. 17:40 5.9° C leicht bewölkt
Sa, 24.02. 17:30 6.1° C wolkig
Sa, 24.02. 17:20 6.1° C wolkig
Sa, 24.02. 17:10 6.1° C bewölkt
Sa, 24.02. 17:00 6.4° C bewölkt
Sa, 24.02. 16:30 5.2° C bedeckt
Sa, 24.02. 16:00 4.6° C leichter Regen
Sa, 24.02. 15:30 8.4° C wolkig
Sa, 24.02. 15:00 8.2° C leichter Regen
Ortszeit Relative Feuchte Sichtweite
Sa, 24.02. 13:00 77% 35 km
Sa, 24.02. 7:00 84% 35 km
Sa, 24.02. 1:00 79% 40 km
Fr, 23.02. 19:00 76% 45 km
Fr, 23.02. 13:00 67% 40 km
Fr, 23.02. 7:00 86% 30 km
Fr, 23.02. 1:00 81% 30 km
Do, 22.02. 19:00 94% 30 km
Ortszeit Relative Feuchte Sichtweite
Sa, 24.02. 18:00 85% 50 km
Sa, 24.02. 17:50 85% -
Sa, 24.02. 17:40 85% -
Sa, 24.02. 17:30 83% 50 km
Sa, 24.02. 17:20 83% -
Sa, 24.02. 17:10 85% -
Sa, 24.02. 17:00 84% 65 km
Sa, 24.02. 16:30 93% 55 km
Sa, 24.02. 16:00 86% 6 km
Sa, 24.02. 15:30 69% 45 km
Sa, 24.02. 15:00 71% 23 km
Ortszeit Niederschlagsmenge Niederschlagsart
Sa, 24.02. 13:00 0.1 l/m2 in 6 Std. Regen
Sa, 24.02. 7:00 0.0 l/m2 in 12 Std. -
Sa, 24.02. 1:00 0.0 l/m2 in 6 Std. -
Fr, 23.02. 19:00 0.1 l/m2 in 12 Std. Regen
Fr, 23.02. 13:00 0.1 l/m2 in 6 Std. Regen
Fr, 23.02. 7:00 0.2 l/m2 in 12 Std. Regen
Fr, 23.02. 1:00 0.1 l/m2 in 6 Std. Regen
Do, 22.02. 19:00 0.1 l/m2 in 12 Std. Regen
Ortszeit Niederschlagsmenge Niederschlagsart
Sa, 24.02. 18:00 0.0 l/m2 in 1 Std. -
Sa, 24.02. 17:50 keine Meldung -
Sa, 24.02. 17:40 keine Meldung -
Sa, 24.02. 17:30 0.0 l/m2 in 30 Min -
Sa, 24.02. 17:20 keine Meldung -
Sa, 24.02. 17:10 keine Meldung -
Sa, 24.02. 17:00 2.8 l/m2 in 1 Std. Regen, Niederschlag
Sa, 24.02. 16:30 2.8 l/m2 in 30 Min Schneeregen
Sa, 24.02. 16:00 0.2 l/m2 in 1 Std. Regen
Sa, 24.02. 15:30 <0.05 l/m2 in 30 Min Schneeregen
Sa, 24.02. 15:00 <0.05 l/m2 in 1 Std. Regen
Ortszeit Stärke Spitze Richtung
km/h Bft. km/h Grad Sektor
Sa, 24.02. 13:00 17 3 28 190° S
Sa, 24.02. 7:00 11 2 22 130° SO
Sa, 24.02. 1:00 11 2 40 140° SO
Fr, 23.02. 19:00 24 4 63 180° S
Fr, 23.02. 13:00 35 5 59 190° S
Fr, 23.02. 7:00 50 7 90 220° SW
Fr, 23.02. 1:00 70 8 100 230° SW
Do, 22.02. 19:00 24 4 44 140° SO
Ortszeit Stärke Spitze Richtung
km/h Bft. km/h Grad Sektor
Sa, 24.02. 18:00 22 4 40 220° SW
Sa, 24.02. 17:50 22 4 - 220° SW
Sa, 24.02. 17:40 24 4 - 220° SW
Sa, 24.02. 17:30 31 5 41 220° SW
Sa, 24.02. 17:20 31 5 - 220° SW
Sa, 24.02. 17:10 32 5 - 220° SW
Sa, 24.02. 17:00 31 5 44 230° SW
Sa, 24.02. 16:30 20 4 44 190° S
Sa, 24.02. 16:00 50 6 69 200° S
Sa, 24.02. 15:30 13 3 22 180° S
Sa, 24.02. 15:00 14 3 29 180° S
Ortszeit Untergrenze Bedeckung Gattung
total tief tief mittel hoch
Sa, 24.02. 13:00 480 m 7/8 7/8 - - -
Sa, 24.02. 7:00 1500 m 8/8 8/8 - - -
Sa, 24.02. 1:00 1800 m 6/8 2/8 - - -
Fr, 23.02. 19:00 1800 m 4/8 3/8 - - -
Fr, 23.02. 13:00 1140 m 8/8 8/8 - - -
Fr, 23.02. 7:00 600 m 7/8 6/8 - - -
Fr, 23.02. 1:00 660 m 7/8 7/8 - - -
Do, 22.02. 19:00 210 m 8/8 8/8 - - -
Ortszeit Bedeckungsgrad in Achtel und Wolkenuntergrenze
Sa, 24.02. 18:00 keine Wolken
Sa, 24.02. 17:50 keine Wolken
Sa, 24.02. 17:40 2
Sa, 24.02. 17:30 2(630m) 4(780m) 7(7200m)
Sa, 24.02. 17:20 2(630m) 4(780m) 7(7200m)
Sa, 24.02. 17:10 7
Sa, 24.02. 17:00 6(540m) 7(960m) 7(6900m)
Sa, 24.02. 16:30 5(510m) 6(690m) 8(870m)
Sa, 24.02. 16:00 3(660m) 6(1500m) 8(1800m)
Sa, 24.02. 15:30 2(1050m) 7(5700m) 7(6900m)
Sa, 24.02. 15:00 2(870m) 6(1350m) 8(1800m)
Ortszeit Luftdruck NN (hPa) Tendenz (hPa in 3 Std.)
Sa, 24.02. 13:00 999 + 0,6
Sa, 24.02. 7:00 997 + 1,1
Sa, 24.02. 1:00 995 + 0,3
Fr, 23.02. 19:00 993 + 2,1
Fr, 23.02. 13:00 991 + 1,4
Fr, 23.02. 7:00 987 + 3,2
Fr, 23.02. 1:00 978 + 3,8
Do, 22.02. 19:00 979 - 4,2
Ortszeit Luftdruck NN (hPa) Tendenz (hPa in 3 Std.)
Sa, 24.02. 18:00 1001 + 2,0
Sa, 24.02. 17:50 1001 keine Meldung
Sa, 24.02. 17:40 1001 keine Meldung
Sa, 24.02. 17:30 1001 + 1,6
Sa, 24.02. 17:20 1001 keine Meldung
Sa, 24.02. 17:10 1001 keine Meldung
Sa, 24.02. 17:00 1000 + 1,4
Sa, 24.02. 16:30 1000 + 1,3
Sa, 24.02. 16:00 1000 + 1,1
Sa, 24.02. 15:30 999 + 0,1
Sa, 24.02. 15:00 999 + 0,3
Ortszeit Schneehöhe (cm)
Sa, 24.02. 13:00 0
Sa, 24.02. 7:00 0
Sa, 24.02. 1:00 0
Fr, 23.02. 19:00 0
Fr, 23.02. 13:00 0
Fr, 23.02. 7:00 0
Fr, 23.02. 1:00 0
Do, 22.02. 19:00 0
Ortszeit Schneehöhe (cm)
Sa, 24.02. 18:00 0
Sa, 24.02. 17:50 0
Sa, 24.02. 17:40 -
Sa, 24.02. 17:30 0
Sa, 24.02. 17:20 0
Sa, 24.02. 17:10 -
Sa, 24.02. 17:00 0
Sa, 24.02. 16:30 0
Sa, 24.02. 16:00 0
Sa, 24.02. 15:30 0
Sa, 24.02. 15:00 0
Link zu dieser Seite / Seite empfehlen

Das Wetter in ...